Time;durP1;ratioP1;P1;durP2;ratioP2;P2;SDS_P1;SDS_P2;PMS_P1;PMS_P2;Temp;Humidity;BMP_temperature;BMP_pressure;BME280_temperature;BME280_humidity;BME280_pressure;Samples;Min_cycle;Max_cycle;Signal;HPM_P1;HPM_P2
2023/10/27 00:02:45;;;;;;;;;;;;;;;7.65;100.00;99345.78;5020586;28;19946;-80
2023/10/27 00:05:31;;;;;;;;;;;;;;;7.67;100.00;99349.16;5042492;28;20929;-80
2023/10/27 00:08:16;;;;;;;;;;;;;;;7.68;100.00;99344.75;5013159;28;20027;-80
2023/10/27 00:11:04;;;;;;;;;;;;;;;7.68;100.00;99350.84;5022393;28;19929;-79
2023/10/27 00:13:50;;;;;;;;;;;;;;;7.70;100.00;99350.78;5038167;28;19940;-80
2023/10/27 00:16:35;;;;;;;;;;;;;;;7.71;100.00;99355.97;5030930;28;19939;-79
2023/10/27 00:19:21;;;;;;;;;;;;;;;7.72;100.00;99354.16;5026978;28;20540;-79
2023/10/27 00:22:07;;;;;;;;;;;;;;;7.72;100.00;99351.53;5044883;28;19932;-80
2023/10/27 00:24:53;;;;;;;;;;;;;;;7.72;100.00;99352.38;5024229;28;19928;-80
2023/10/27 00:27:39;;;;;;;;;;;;;;;7.72;100.00;99347.13;5042038;28;20037;-81
2023/10/27 00:30:24;;;;;;;;;;;;;;;7.73;100.00;99340.03;5026250;28;19933;-79
2023/10/27 00:33:10;;;;;;;;;;;;;;;7.73;100.00;99342.69;5044480;28;19987;-80
2023/10/27 00:35:56;;;;;;;;;;;;;;;7.73;100.00;99343.53;5045813;28;19972;-79
2023/10/27 00:38:41;;;;;;;;;;;;;;;7.73;100.00;99340.91;5015254;28;19963;-80
2023/10/27 00:41:28;;;;;;;;;;;;;;;7.73;100.00;99326.88;5042700;28;19936;-80
2023/10/27 00:44:13;;;;;;;;;;;;;;;7.74;100.00;99329.41;5047383;28;19932;-79
2023/10/27 00:46:59;;;;;;;;;;;;;;;7.75;100.00;99336.38;5047172;28;19936;-80
2023/10/27 00:49:44;;;;;;;;;;;;;;;7.75;100.00;99332.91;5046507;28;19933;-80
2023/10/27 00:52:30;;;;;;;;;;;;;;;7.74;100.00;99328.59;5034296;28;19925;-80
2023/10/27 00:55:16;;;;;;;;;;;;;;;7.74;100.00;99318.88;5031959;28;19936;-79
2023/10/27 00:58:02;;;;;;;;;;;;;;;7.74;100.00;99323.31;5029255;28;20019;-80
2023/10/27 01:00:47;;;;;;;;;;;;;;;7.74;100.00;99318.06;5045708;28;19929;-81
2023/10/27 01:03:35;;;;;;;;;;;;;;;7.74;100.00;99313.63;5041089;28;20310;-80
2023/10/27 01:06:21;;;;;;;;;;;;;;;7.74;100.00;99303.06;5030116;28;19935;-81
2023/10/27 01:09:07;;;;;;;;;;;;;;;7.73;100.00;99301.38;5045631;28;20031;-79
2023/10/27 01:11:53;;;;;;;;;;;;;;;7.73;100.00;99304.03;5016052;28;20027;-79
2023/10/27 01:14:39;;;;;;;;;;;;;;;7.74;100.00;99303.06;5029411;28;19959;-80
2023/10/27 01:17:25;;;;;;;;;;;;;;;7.73;100.00;99301.38;5047375;28;19929;-80
2023/10/27 01:20:13;;;;;;;;;;;;;;;7.74;100.00;99308.34;5027323;28;19920;-80
2023/10/27 01:23:01;;;;;;;;;;;;;;;7.76;100.00;99316.16;5033814;28;19924;-80
2023/10/27 01:25:46;;;;;;;;;;;;;;;7.77;100.00;99306.47;5030350;28;20465;-79
2023/10/27 01:28:32;;;;;;;;;;;;;;;7.79;100.00;99312.50;5027067;28;20384;-79
2023/10/27 01:31:17;;;;;;;;;;;;;;;7.79;100.00;99310.72;5043852;28;19928;-80
2023/10/27 01:34:03;;;;;;;;;;;;;;;7.80;100.00;99312.41;5043618;28;19936;-79
2023/10/27 01:36:49;;;;;;;;;;;;;;;7.82;100.00;99304.41;5031604;28;19936;-80
2023/10/27 01:39:34;;;;;;;;;;;;;;;7.81;100.00;99300.94;5046903;28;19939;-79
2023/10/27 01:42:22;;;;;;;;;;;;;;;7.83;100.00;99306.09;5043697;28;19935;-79
2023/10/27 01:45:08;;;;;;;;;;;;;;;7.84;100.00;99302.56;5044481;28;20303;-80
2023/10/27 01:47:54;;;;;;;;;;;;;;;7.85;100.00;99296.34;5030549;28;20362;-80
2023/10/27 01:50:39;;;;;;;;;;;;;;;7.85;100.00;99293.72;5015429;28;20338;-79
2023/10/27 01:53:25;;;;;;;;;;;;;;;7.86;100.00;99290.13;5044196;28;20443;-79
2023/10/27 01:56:11;;;;;;;;;;;;;;;7.87;100.00;99297.09;5045093;28;19983;-80
2023/10/27 01:58:57;;;;;;;;;;;;;;;7.88;100.00;99293.50;5026754;28;19956;-79
2023/10/27 02:01:42;;;;;;;;;;;;;;;7.90;100.00;99296.06;5028358;28;20474;-80
2023/10/27 02:04:28;;;;;;;;;;;;;;;7.90;100.00;99294.25;5046489;28;19922;-79
2023/10/27 02:07:15;;;;;;;;;;;;;;;7.91;100.00;99288.09;5029361;28;19929;-79
2023/10/27 02:10:00;;;;;;;;;;;;;;;7.92;100.00;99281.88;5031688;28;19951;-79
2023/10/27 02:12:49;;;;;;;;;;;;;;;7.91;100.00;99279.31;5046543;28;20395;-80
2023/10/27 02:15:35;;;;;;;;;;;;;;;7.92;100.00;99273.97;5033545;28;19986;-79
2023/10/27 02:18:20;;;;;;;;;;;;;;;7.92;100.00;99273.97;5045829;28;19924;-80
2023/10/27 02:21:06;;;;;;;;;;;;;;;7.91;100.00;99272.28;5017936;28;19928;-80
2023/10/27 02:23:52;;;;;;;;;;;;;;;7.93;100.00;99277.44;5032583;28;20018;-80
2023/10/27 02:26:38;;;;;;;;;;;;;;;7.91;100.00;99277.53;5029686;28;19988;-80
2023/10/27 02:29:23;;;;;;;;;;;;;;;7.93;100.00;99266.88;5046866;28;19928;-80
2023/10/27 02:32:09;;;;;;;;;;;;;;;7.93;100.00;99269.53;5017189;28;20525;-80
2023/10/27 02:34:55;;;;;;;;;;;;;;;7.92;100.00;99273.09;5034018;28;20059;-80
2023/10/27 02:37:40;;;;;;;;;;;;;;;7.93;100.00;99272.16;5046788;28;20042;-79
2023/10/27 02:40:26;;;;;;;;;;;;;;;7.93;100.00;99275.66;5032070;28;19936;-79
2023/10/27 02:43:12;;;;;;;;;;;;;;;7.93;100.00;99286.19;5033653;28;19935;-80
2023/10/27 02:46:01;;;;;;;;;;;;;;;7.94;100.00;99276.47;5033455;28;19928;-80
2023/10/27 02:48:47;;;;;;;;;;;;;;;7.93;100.00;99278.28;5032988;28;19958;-80
2023/10/27 02:51:32;;;;;;;;;;;;;;;7.93;100.00;99273.03;5048021;28;20643;-80
2023/10/27 02:54:18;;;;;;;;;;;;;;;7.93;100.00;99270.38;5048745;28;19952;-80
2023/10/27 02:57:04;;;;;;;;;;;;;;;7.94;100.00;99276.47;5025411;28;19929;-79
2023/10/27 02:59:50;;;;;;;;;;;;;;;7.94;100.00;99281.75;5044438;28;20082;-79
2023/10/27 03:02:35;;;;;;;;;;;;;;;7.95;100.00;99273.75;5028850;28;19921;-78
2023/10/27 03:05:21;;;;;;;;;;;;;;;7.96;100.00;99269.34;5029477;28;19935;-79
2023/10/27 03:08:07;;;;;;;;;;;;;;;7.98;100.00;99276.25;5041376;28;20051;-82
2023/10/27 03:10:55;;;;;;;;;;;;;;;7.97;100.00;99274.53;5045105;28;19940;-80
2023/10/27 03:13:41;;;;;;;;;;;;;;;7.97;100.00;99282.44;5031679;28;19999;-80
2023/10/27 03:16:27;;;;;;;;;;;;;;;7.98;100.00;99273.59;5043465;28;19928;-79
2023/10/27 03:19:12;;;;;;;;;;;;;;;7.98;100.00;99278.88;5044178;28;19943;-79
2023/10/27 03:21:59;;;;;;;;;;;;;;;7.99;100.00;99275.28;5026502;28;19924;-80
2023/10/27 03:24:45;;;;;;;;;;;;;;;8.00;100.00;99284.88;5043432;28;19935;-80
2023/10/27 03:27:33;;;;;;;;;;;;;;;8.01;100.00;99278.66;5042188;28;20015;-80
2023/10/27 03:30:19;;;;;;;;;;;;;;;8.01;100.00;99278.66;5025389;28;20639;-79
2023/10/27 03:33:05;;;;;;;;;;;;;;;8.03;100.00;99283.84;5027892;28;19920;-80
2023/10/27 03:35:50;;;;;;;;;;;;;;;8.05;100.00;99278.50;5022539;28;19928;-79
2023/10/27 03:38:36;;;;;;;;;;;;;;;8.04;100.00;99277.66;5040774;28;19987;-80
2023/10/27 03:41:22;;;;;;;;;;;;;;;8.04;100.00;99277.66;5042236;28;19939;-79
2023/10/27 03:44:07;;;;;;;;;;;;;;;8.06;100.00;99285.47;5040150;28;20330;-80
2023/10/27 03:46:53;;;;;;;;;;;;;;;8.06;100.00;99275.75;5028244;28;19977;-80
2023/10/27 03:49:39;;;;;;;;;;;;;;;8.06;100.00;99270.47;5042398;28;19929;-79
2023/10/27 03:52:24;;;;;;;;;;;;;;;8.06;100.00;99269.66;5043675;28;19959;-81
2023/10/27 03:55:11;;;;;;;;;;;;;;;8.05;100.00;99273.22;5042842;28;19939;-80
2023/10/27 03:58:11;;;;;;;;;;;;;;;8.04;100.00;99276.78;5043062;28;19936;-80
2023/10/27 04:00:59;;;;;;;;;;;;;;;8.02;100.00;99267.19;5041689;28;19925;-80
2023/10/27 04:03:45;;;;;;;;;;;;;;;7.99;100.00;99267.38;5035608;28;20009;-78
2023/10/27 04:06:31;;;;;;;;;;;;;;;8.00;100.00;99265.56;5041766;28;20341;-80
2023/10/27 04:09:16;;;;;;;;;;;;;;;7.98;100.00;99268.31;5039762;28;19933;-78
2023/10/27 04:12:06;;;;;;;;;;;;;;;7.97;100.00;99264.00;5041088;28;19986;-79
2023/10/27 04:14:51;;;;;;;;;;;;;;;7.97;100.00;99263.13;5038673;28;20149;-77
2023/10/27 04:17:37;;;;;;;;;;;;;;;7.96;100.00;99254.38;5042199;28;19928;-79
2023/10/27 04:20:23;;;;;;;;;;;;;;;7.97;100.00;99264.00;5023840;28;20553;-80
2023/10/27 04:23:09;;;;;;;;;;;;;;;7.97;100.00;99258.72;5024825;28;19996;-79
2023/10/27 04:25:54;;;;;;;;;;;;;;;7.98;100.00;99259.56;5041545;28;19933;-78
2023/10/27 04:28:40;;;;;;;;;;;;;;;7.96;100.00;99259.66;5040185;28;20388;-79
2023/10/27 04:31:26;;;;;;;;;;;;;;;7.96;100.00;99259.66;5040759;28;20047;-78
2023/10/27 04:34:11;;;;;;;;;;;;;;;7.94;100.00;99251.00;5038992;28;20749;-79
2023/10/27 04:36:57;;;;;;;;;;;;;;;7.93;100.00;99254.56;5040255;28;19935;-79
2023/10/27 04:39:43;;;;;;;;;;;;;;;7.93;100.00;99254.56;5040702;28;19928;-80
2023/10/27 04:42:28;;;;;;;;;;;;;;;7.91;100.00;99255.59;5039186;28;20437;-81
2023/10/27 04:45:14;;;;;;;;;;;;;;;7.88;100.00;99246.09;5039299;28;20351;-80
2023/10/27 04:48:00;;;;;;;;;;;;;;;7.86;100.00;99251.44;5039493;28;19933;-83
2023/10/27 04:50:51;;;;;;;;;;;;;;;7.85;100.00;99247.13;5009315;28;19976;-78
2023/10/27 04:53:37;;;;;;;;;;;;;;;7.84;100.00;99248.06;5041701;28;19974;-80
2023/10/27 04:56:22;;;;;;;;;;;;;;;7.84;100.00;99247.22;5025917;28;20041;-79
2023/10/27 04:59:08;;;;;;;;;;;;;;;7.84;100.00;99255.13;5042592;28;19929;-80
2023/10/27 05:01:54;;;;;;;;;;;;;;;7.83;100.00;99249.00;5043420;28;19986;-79
2023/10/27 05:04:40;;;;;;;;;;;;;;;7.83;100.00;99234.97;5045298;28;20140;-78
2023/10/27 05:07:25;;;;;;;;;;;;;;;7.82;100.00;99247.31;5044907;28;19935;-79
2023/10/27 05:10:11;;;;;;;;;;;;;;;7.83;100.00;99242.88;5045712;28;20815;-80
2023/10/27 05:12:58;;;;;;;;;;;;;;;7.83;100.00;99234.97;5028713;28;19948;-79
2023/10/27 05:15:51;;;;;;;;;;;;;;;7.84;100.00;99236.69;5042986;28;19929;-79
2023/10/27 05:18:37;;;;;;;;;;;;;;;7.83;100.00;99235.81;5044399;28;20138;-79
2023/10/27 05:21:26;;;;;;;;;;;;;;;7.83;100.00;99241.09;5030666;28;19978;-80
2023/10/27 05:24:12;;;;;;;;;;;;;;;7.83;100.00;99242.88;5045003;28;19928;-80
2023/10/27 05:26:58;;;;;;;;;;;;;;;7.82;100.00;99244.69;5043010;28;19929;-79
2023/10/27 05:29:43;;;;;;;;;;;;;;;7.81;100.00;99250.03;5041258;28;19932;-80
2023/10/27 05:32:33;;;;;;;;;;;;;;;7.80;100.00;99245.69;5027932;28;19932;-79
2023/10/27 05:35:18;;;;;;;;;;;;;;;7.77;100.00;99238.81;5031861;28;19958;-80
2023/10/27 05:38:04;;;;;;;;;;;;;;;7.75;100.00;99241.53;5029823;28;20404;-79
2023/10/27 05:40:50;;;;;;;;;;;;;;;7.74;100.00;99233.75;5045609;28;19979;-79
2023/10/27 05:43:35;;;;;;;;;;;;;;;7.74;100.00;99234.59;5030409;28;19932;-79
2023/10/27 05:46:21;;;;;;;;;;;;;;;7.74;100.00;99236.38;5044901;28;19936;-79
2023/10/27 05:49:07;;;;;;;;;;;;;;;7.74;100.00;99231.94;5031909;28;19929;-79
2023/10/27 05:51:52;;;;;;;;;;;;;;;7.72;100.00;99228.56;5018061;28;19928;-79
2023/10/27 05:54:43;;;;;;;;;;;;;;;7.73;100.00;99238.16;5045932;28;19925;-80
2023/10/27 05:57:32;;;;;;;;;;;;;;;7.73;100.00;99227.63;5046968;28;20015;-79
2023/10/27 06:00:18;;;;;;;;;;;;;;;7.73;100.00;99225.00;5035984;28;19996;-79
2023/10/27 06:03:03;;;;;;;;;;;;;;;7.73;100.00;99232.88;5041720;28;19971;-79
2023/10/27 06:05:51;;;;;;;;;;;;;;;7.73;100.00;99217.09;5025025;28;20025;-78
2023/10/27 06:08:42;;;;;;;;;;;;;;;7.73;100.00;99227.63;5040843;28;19929;-79
2023/10/27 06:11:28;;;;;;;;;;;;;;;7.74;100.00;99224.03;5039956;28;19932;-78
2023/10/27 06:14:13;;;;;;;;;;;;;;;7.74;100.00;99229.31;5037915;28;20031;-79
2023/10/27 06:16:59;;;;;;;;;;;;;;;7.74;100.00;99223.22;5039631;28;19956;-79
2023/10/27 06:19:44;;;;;;;;;;;;;;;7.74;100.00;99229.31;5039932;28;19936;-78
2023/10/27 06:22:30;;;;;;;;;;;;;;;7.75;100.00;99225.72;5041575;28;19933;-79
2023/10/27 06:25:16;;;;;;;;;;;;;;;7.75;100.00;99224.91;5029145;28;19965;-80
2023/10/27 06:28:01;;;;;;;;;;;;;;;7.75;100.00;99231.00;5043432;28;20432;-79
2023/10/27 06:30:47;;;;;;;;;;;;;;;7.75;100.00;99233.63;5041705;28;20491;-78
2023/10/27 06:33:33;;;;;;;;;;;;;;;7.75;100.00;99236.28;5040718;28;20408;-79
2023/10/27 06:36:21;;;;;;;;;;;;;;;7.77;100.00;99243.22;5028491;28;20031;-78
2023/10/27 06:39:08;;;;;;;;;;;;;;;7.77;100.00;99246.72;5024112;28;19936;-79
2023/10/27 06:41:56;;;;;;;;;;;;;;;7.77;100.00;99256.41;5011365;28;20063;-80
2023/10/27 06:44:42;;;;;;;;;;;;;;;7.78;100.00;99250.22;5036425;28;19928;-78
2023/10/27 06:47:28;;;;;;;;;;;;;;;7.79;100.00;99251.91;5035532;28;20296;-77
2023/10/27 06:50:13;;;;;;;;;;;;;;;7.80;100.00;99248.34;5032563;28;19937;-78
2023/10/27 06:52:59;;;;;;;;;;;;;;;7.79;100.00;99252.75;5031199;28;19940;-78
2023/10/27 06:55:47;;;;;;;;;;;;;;;7.81;100.00;99247.38;5036420;28;19939;-80
2023/10/27 06:58:35;;;;;;;;;;;;;;;7.81;100.00;99244.75;5037902;28;19928;-80
2023/10/27 07:01:21;;;;;;;;;;;;;;;7.83;100.00;99242.88;5039177;28;19955;-79
2023/10/27 07:04:06;;;;;;;;;;;;;;;7.84;100.00;99249.88;5038133;28;19944;-80
2023/10/27 07:06:52;;;;;;;;;;;;;;;7.85;100.00;99243.66;5036514;28;19936;-78
2023/10/27 07:09:38;;;;;;;;;;;;;;;7.86;100.00;99247.97;5032404;28;19929;-79
2023/10/27 07:12:24;;;;;;;;;;;;;;;7.88;100.00;99241.69;5033775;28;19943;-79
2023/10/27 07:15:10;;;;;;;;;;;;;;;7.88;100.00;99251.34;5021916;28;19939;-78
2023/10/27 07:17:55;;;;;;;;;;;;;;;7.90;100.00;99248.63;5022959;28;19994;-79
2023/10/27 07:20:41;;;;;;;;;;;;;;;7.91;100.00;99256.47;5012164;28;19925;-77
2023/10/27 07:23:28;;;;;;;;;;;;;;;7.93;100.00;99259.84;5039932;28;19940;-77
2023/10/27 07:26:14;;;;;;;;;;;;;;;7.94;100.00;99258.91;5038755;28;19940;-78
2023/10/27 07:29:00;;;;;;;;;;;;;;;7.95;100.00;99263.22;5040082;28;20000;-78
2023/10/27 07:31:48;;;;;;;;;;;;;;;7.97;100.00;99264.00;5026664;28;19999;-79
2023/10/27 07:34:35;;;;;;;;;;;;;;;7.99;100.00;99262.13;5021139;28;20077;-78
2023/10/27 07:37:23;;;;;;;;;;;;;;;7.99;100.00;99259.47;5036728;28;20283;-79
2023/10/27 07:40:09;;;;;;;;;;;;;;;8.01;100.00;99260.22;5024697;28;20281;-79
2023/10/27 07:42:58;;;;;;;;;;;;;;;8.04;100.00;99253.06;5040141;28;19921;-78
2023/10/27 07:45:44;;;;;;;;;;;;;;;8.05;100.00;99252.97;5037395;28;19947;-78
2023/10/27 07:48:30;;;;;;;;;;;;;;;8.07;100.00;99260.81;5025080;28;19929;-78
2023/10/27 07:51:15;;;;;;;;;;;;;;;8.10;100.00;99257.97;5019292;28;19928;-79
2023/10/27 07:54:02;;;;;;;;;;;;;;;8.13;100.00;99257.78;5018592;28;19925;-79
2023/10/27 07:56:48;;;;;;;;;;;;;;;8.15;100.00;99258.53;5024740;28;19928;-78
2023/10/27 07:59:34;;;;;;;;;;;;;;;8.18;100.00;99258.38;5033515;28;19929;-79
2023/10/27 08:02:19;;;;;;;;;;;;;;;8.21;100.00;99259.94;5019486;28;20039;-79
2023/10/27 08:05:08;;;;;;;;;;;;;;;8.22;100.00;99262.50;5035726;28;19932;-78
2023/10/27 08:07:56;;;;;;;;;;;;;;;8.24;100.00;99263.25;5036310;28;20037;-79
2023/10/27 08:10:46;;;;;;;;;;;;;;;8.26;100.00;99266.66;5035210;28;19925;-79
2023/10/27 08:13:32;;;;;;;;;;;;;;;8.28;100.00;99270.03;5034214;28;19936;-78
2023/10/27 08:16:18;;;;;;;;;;;;;;;8.28;100.00;99261.28;5033825;28;19928;-78
2023/10/27 08:19:04;;;;;;;;;;;;;;;8.28;100.00;99254.22;5036811;28;19963;-79
2023/10/27 08:21:49;;;;;;;;;;;;;;;8.31;100.00;99257.59;5008262;28;19928;-78
2023/10/27 08:24:36;;;;;;;;;;;;;;;8.31;100.00;99261.09;5037985;28;19968;-78
2023/10/27 08:27:23;;;;;;;;;;;;;;;8.32;100.00;99265.44;5013113;28;20462;-79
2023/10/27 08:30:09;;;;;;;;;;;;;;;8.32;100.00;99254.88;5025412;28;19967;-78
2023/10/27 08:32:55;;;;;;;;;;;;;;;8.34;100.00;99262.69;5040771;28;19936;-78
2023/10/27 08:35:40;;;;;;;;;;;;;;;8.34;100.00;99257.44;5042025;28;19994;-78
2023/10/27 08:38:29;;;;;;;;;;;;;;;8.33;100.00;99247.81;5023415;28;19963;-78
2023/10/27 08:41:18;;;;;;;;;;;;;;;8.32;100.00;99254.03;5025689;28;19944;-79
2023/10/27 08:44:04;;;;;;;;;;;;;;;8.34;100.00;99260.06;5025815;28;19963;-80
2023/10/27 08:46:53;;;;;;;;;;;;;;;8.34;100.00;99257.44;5022017;28;19917;-78
2023/10/27 08:49:39;;;;;;;;;;;;;;;8.35;100.00;99259.97;5038749;28;19976;-78
2023/10/27 08:52:25;;;;;;;;;;;;;;;8.36;100.00;99268.72;5005582;28;20414;-77
2023/10/27 08:55:10;;;;;;;;;;;;;;;8.38;100.00;99264.19;5031120;28;19929;-78
2023/10/27 08:57:56;;;;;;;;;;;;;;;8.38;100.00;99270.31;5022515;28;19924;-77
2023/10/27 09:00:46;;;;;;;;;;;;;;;8.40;100.00;99268.44;5041135;28;19929;-78
2023/10/27 09:03:31;;;;;;;;;;;;;;;8.42;100.00;99265.72;5013573;28;20382;-79
2023/10/27 09:06:17;;;;;;;;;;;;;;;8.44;100.00;99263.81;5024139;28;19928;-78
2023/10/27 09:09:05;;;;;;;;;;;;;;;8.48;100.00;99265.34;5036255;28;19928;-80
2023/10/27 09:11:51;;;;;;;;;;;;;;;8.50;100.00;99263.44;5037377;28;20019;-79
2023/10/27 09:14:37;;;;;;;;;;;;;;;8.53;100.00;99260.66;5016830;28;19948;-78
2023/10/27 09:17:23;;;;;;;;;;;;;;;8.56;100.00;99267.53;5004252;28;19943;-79
2023/10/27 09:20:09;;;;;;;;;;;;;;;8.59;100.00;99266.47;5011305;28;19925;-78
2023/10/27 09:22:55;;;;;;;;;;;;;;;8.62;100.00;99267.16;5016975;28;20871;-77
2023/10/27 09:25:41;;;;;;;;;;;;;;;8.66;100.00;99270.44;5030596;28;19935;-77
2023/10/27 09:28:28;;;;;;;;;;;;;;;8.68;100.00;99265.91;5024091;28;20035;-78
2023/10/27 09:31:20;;;;;;;;;;;;;;;8.70;100.00;99274.56;5032903;28;19933;-77
2023/10/27 09:34:16;;;;;;;;;;;;;;;8.74;100.00;99277.88;5012826;28;20431;-78
2023/10/27 09:37:02;;;;;;;;;;;;;;;8.76;100.00;99279.47;5018652;28;19928;-76
2023/10/27 09:39:47;;;;;;;;;;;;;;;8.78;100.00;99272.28;5013532;28;20014;-78
2023/10/27 09:42:33;;;;;;;;;;;;;;;8.82;100.00;99273.81;5009896;28;20010;-77
2023/10/27 09:45:20;;;;;;;;;;;;;;;8.87;100.00;99277.94;5029862;28;20437;-77
2023/10/27 09:48:06;;;;;;;;;;;;;;;8.92;100.00;99278.50;5001626;28;19932;-77
2023/10/27 09:50:52;;;;;;;;;;;;;;;8.95;100.00;99273.84;5011952;28;19925;-78
2023/10/27 09:53:41;;;;;;;;;;;;;;;8.98;100.00;99278.09;5014619;28;19931;-78
2023/10/27 09:56:27;;;;;;;;;;;;;;;9.01;100.00;99270.00;5028427;28;19928;-77
2023/10/27 09:59:13;;;;;;;;;;;;;;;9.05;100.00;99268.84;5033357;28;19933;-78
2023/10/27 10:02:05;;;;;;;;;;;;;;;9.08;100.00;99281.00;5017169;28;19925;-78
2023/10/27 10:04:50;;;;;;;;;;;;;;;9.13;100.00;99273.63;5002184;28;20303;-77
2023/10/27 10:07:37;;;;;;;;;;;;;;;9.14;100.00;99277.97;5033550;28;20406;-78
2023/10/27 10:10:38;;;;;;;;;;;;;;;9.16;100.00;99275.25;5014356;28;20303;-78
2023/10/27 10:13:33;;;;;;;;;;;;;;;9.18;100.00;99274.19;5031619;28;19933;-78
2023/10/27 10:16:19;;;;;;;;;;;;;;;9.18;100.00;99274.19;5033119;28;19928;-78
2023/10/27 10:19:05;;;;;;;;;;;;;;;9.21;100.00;99273.16;5014615;28;19956;-79
2023/10/27 10:21:50;;;;;;;;;;;;;;;9.23;100.00;99276.53;5024596;28;19928;-78
2023/10/27 10:24:36;;;;;;;;;;;;;;;9.24;100.00;99267.66;5034504;28;19972;-77
2023/10/27 10:27:23;;;;;;;;;;;;;;;9.27;100.00;99272.75;5036591;28;20003;-77
2023/10/27 10:30:18;;;;;;;;;;;;;;;9.32;100.00;99275.09;5024423;28;19936;-77
2023/10/27 10:33:16;;;;;;;;;;;;;;;9.31;100.00;99276.03;5014947;28;19929;-78
2023/10/27 10:36:11;;;;;;;;;;;;;;;9.34;100.00;99279.31;5030390;28;19936;-78
2023/10/27 10:38:57;;;;;;;;;;;;;;;9.34;100.00;99274.03;5031863;28;20763;-78
2023/10/27 10:41:53;;;;;;;;;;;;;;;9.35;100.00;99275.75;5018821;28;19932;-77
2023/10/27 10:44:38;;;;;;;;;;;;;;;9.35;100.00;99281.03;5030739;28;19987;-78
2023/10/27 10:47:26;;;;;;;;;;;;;;;9.33;100.00;99274.97;5001931;28;19931;-81
2023/10/27 10:50:12;;;;;;;;;;;;;;;9.34;100.00;99279.31;5023588;28;19932;-77
2023/10/27 10:53:15;;;;;;;;;;;;;;;9.31;100.00;99274.22;5032016;28;19994;-79
2023/10/27 10:56:01;;;;;;;;;;;;;;;9.29;100.00;99270.84;5028053;28;19929;-77
2023/10/27 10:58:47;;;;;;;;;;;;;;;9.30;100.00;99272.53;5025064;28;19925;-78
2023/10/27 11:01:33;;;;;;;;;;;;;;;9.30;100.00;99269.91;5028727;28;20637;-78
2023/10/27 11:04:18;;;;;;;;;;;;;;;9.29;100.00;99270.00;5030008;28;19933;-77
2023/10/27 11:07:04;;;;;;;;;;;;;;;9.30;100.00;99271.69;5030382;28;20503;-78
2023/10/27 11:09:50;;;;;;;;;;;;;;;9.30;100.00;99269.91;5027901;28;20272;-76
2023/10/27 11:12:36;;;;;;;;;;;;;;;9.31;100.00;99268.13;5030594;28;20031;-78
2023/10/27 11:15:40;;;;;;;;;;;;;;;9.31;100.00;99268.13;4996982;28;20012;-77
2023/10/27 11:18:27;;;;;;;;;;;;;;;9.28;100.00;99271.81;5026668;28;20644;-77
2023/10/27 11:21:16;;;;;;;;;;;;;;;9.29;100.00;99270.84;5021270;28;20050;-78
2023/10/27 11:24:08;;;;;;;;;;;;;;;9.30;100.00;99269.91;5012826;28;19925;-77
2023/10/27 11:26:54;;;;;;;;;;;;;;;9.32;100.00;99275.09;5024279;28;19934;-77
2023/10/27 11:29:40;;;;;;;;;;;;;;;9.30;100.00;99272.53;4996964;28;20631;-78
2023/10/27 11:32:25;;;;;;;;;;;;;;;9.30;100.00;99271.69;5021581;28;19986;-77
2023/10/27 11:35:11;;;;;;;;;;;;;;;9.27;100.00;99272.75;5009346;28;19956;-78
2023/10/27 11:38:01;;;;;;;;;;;;;;;9.25;100.00;99274.63;5016109;28;20098;-77
2023/10/27 11:40:46;;;;;;;;;;;;;;;9.21;100.00;99279.25;5031426;28;21099;-78
2023/10/27 11:43:32;;;;;;;;;;;;;;;9.19;100.00;99275.03;5030314;28;19936;-79
2023/10/27 11:46:18;;;;;;;;;;;;;;;9.15;100.00;99271.72;5030824;28;20011;-79
2023/10/27 11:49:04;;;;;;;;;;;;;;;9.12;100.00;99271.09;5021268;28;20452;-79
2023/10/27 11:51:52;;;;;;;;;;;;;;;9.07;100.00;99272.25;5028949;28;20404;-78
2023/10/27 11:54:37;;;;;;;;;;;;;;;9.04;100.00;99275.06;5025303;28;19929;-77
2023/10/27 11:57:23;;;;;;;;;;;;;;;9.01;100.00;99272.63;5024655;28;19990;-78
2023/10/27 12:00:09;;;;;;;;;;;;;;;9.02;100.00;99278.75;5025814;28;19929;-80
2023/10/27 12:02:56;;;;;;;;;;;;;;;9.03;100.00;99273.38;5029325;28;20071;-80
2023/10/27 12:05:42;;;;;;;;;;;;;;;9.05;100.00;99271.47;5032381;28;19925;-79
2023/10/27 12:08:28;;;;;;;;;;;;;;;9.04;100.00;99277.72;5016349;28;20472;-79
2023/10/27 12:11:17;;;;;;;;;;;;;;;9.04;100.00;99274.25;5030936;28;19935;-79
2023/10/27 12:14:03;;;;;;;;;;;;;;;9.02;100.00;99278.75;5031676;28;19928;-80
2023/10/27 12:16:52;;;;;;;;;;;;;;;9.00;100.00;99270.09;5012947;28;19925;-78
2023/10/27 12:19:41;;;;;;;;;;;;;;;8.98;100.00;99267.53;5027573;28;19933;-79
2023/10/27 12:22:27;;;;;;;;;;;;;;;8.97;100.00;99271.13;5014701;28;19979;-80
2023/10/27 12:25:12;;;;;;;;;;;;;;;8.94;100.00;99266.88;5034169;28;19924;-80
2023/10/27 12:27:58;;;;;;;;;;;;;;;8.89;100.00;99270.78;5022162;28;19994;-79
2023/10/27 12:30:44;;;;;;;;;;;;;;;8.88;100.00;99271.72;5015271;28;19940;-79
2023/10/27 12:33:30;;;;;;;;;;;;;;;8.86;100.00;99277.09;5022802;28;19932;-79
2023/10/27 12:36:16;;;;;;;;;;;;;;;8.84;100.00;99273.72;5010675;28;20000;-78
2023/10/27 12:39:03;;;;;;;;;;;;;;;8.82;100.00;99272.94;5016037;28;19928;-78
2023/10/27 12:41:51;;;;;;;;;;;;;;;8.83;100.00;99269.38;5018626;28;19940;-79
2023/10/27 12:44:36;;;;;;;;;;;;;;;8.83;100.00;99270.22;5027263;28;19955;-77
2023/10/27 12:47:22;;;;;;;;;;;;;;;8.84;100.00;99271.06;5023875;28;19937;-79
2023/10/27 12:50:10;;;;;;;;;;;;;;;8.83;100.00;99269.38;5031331;28;19943;-79
2023/10/27 12:52:56;;;;;;;;;;;;;;;8.85;100.00;99274.53;5011221;28;20366;-79
2023/10/27 12:55:42;;;;;;;;;;;;;;;8.86;100.00;99270.97;5030186;28;20851;-79
2023/10/27 12:58:29;;;;;;;;;;;;;;;8.87;100.00;99270.03;5011744;28;21408;-78
2023/10/27 13:01:14;;;;;;;;;;;;;;;8.87;100.00;99270.88;5027062;28;20899;-79
2023/10/27 13:04:01;;;;;;;;;;;;;;;8.87;100.00;99273.50;5006187;28;20846;-78
2023/10/27 13:06:47;;;;;;;;;;;;;;;8.86;100.00;99265.69;4995709;28;20258;-78
2023/10/27 13:09:32;;;;;;;;;;;;;;;8.86;100.00;99268.31;5026855;28;19925;-78
2023/10/27 13:12:22;;;;;;;;;;;;;;;8.87;100.00;99270.88;5024378;28;20354;-77
2023/10/27 13:15:09;;;;;;;;;;;;;;;8.88;100.00;99264.63;5014965;28;19939;-76
2023/10/27 13:17:54;;;;;;;;;;;;;;;8.91;100.00;99266.25;5006659;28;19939;-76
2023/10/27 13:20:40;;;;;;;;;;;;;;;8.93;100.00;99270.47;5008752;28;19933;-76
2023/10/27 13:23:26;;;;;;;;;;;;;;;8.94;100.00;99276.63;5025295;28;19929;-77
2023/10/27 13:26:14;;;;;;;;;;;;;;;8.95;100.00;99279.13;5027857;28;20415;-77
2023/10/27 13:28:59;;;;;;;;;;;;;;;8.95;100.00;99268.59;5025919;28;19929;-77
2023/10/27 13:31:48;;;;;;;;;;;;;;;8.96;100.00;99277.34;5024203;28;20392;-76
2023/10/27 13:34:34;;;;;;;;;;;;;;;8.97;100.00;99273.78;5003434;28;19928;-76
2023/10/27 13:37:20;;;;;;;;;;;;;;;8.98;100.00;99269.34;5008172;28;19925;-76
2023/10/27 13:40:08;;;;;;;;;;;;;;;8.99;100.00;99271.88;5016955;28;19932;-77
2023/10/27 13:42:54;;;;;;;;;;;;;;;8.99;100.00;99279.78;5020732;28;19928;-76
2023/10/27 13:45:40;;;;;;;;;;;;;;;8.99;100.00;99277.16;5029071;28;19940;-87
2023/10/27 13:48:29;;;;;;;;;;;;;;;9.02;100.00;99278.75;4992797;28;19960;-78
2023/10/27 13:51:15;;;;;;;;;;;;;;;9.01;100.00;99275.28;4994292;28;19986;-76
2023/10/27 13:54:01;;;;;;;;;;;;;;;9.00;100.00;99276.22;5025122;28;19928;-77
2023/10/27 13:56:48;;;;;;;;;;;;;;;9.00;100.00;99276.22;5011255;28;19978;-76
2023/10/27 13:59:33;;;;;;;;;;;;;;;9.01;100.00;99277.06;5008979;28;19932;-77
2023/10/27 14:02:20;;;;;;;;;;;;;;;9.00;100.00;99278.88;5002552;28;20028;-75
2023/10/27 14:05:08;;;;;;;;;;;;;;;9.01;100.00;99283.19;5007736;28;19935;-75
2023/10/27 14:07:54;;;;;;;;;;;;;;;8.99;100.00;99284.25;5022946;28;20582;-78
2023/10/27 14:10:40;;;;;;;;;;;;;;;8.99;100.00;99279.78;5025189;28;19929;-77
2023/10/27 14:13:26;;;;;;;;;;;;;;;8.99;100.00;99284.25;5026883;28;19932;-77
2023/10/27 14:16:16;;;;;;;;;;;;;;;8.99;100.00;99279.78;5016031;28;20452;-76
2023/10/27 14:19:02;;;;;;;;;;;;;;;9.00;100.00;99275.38;5024562;28;20907;-78
2023/10/27 14:21:48;;;;;;;;;;;;;;;9.02;100.00;99286.66;5028099;28;20520;-75
2023/10/27 14:24:34;;;;;;;;;;;;;;;9.03;100.00;99291.00;5020686;28;20615;-76
2023/10/27 14:27:19;;;;;;;;;;;;;;;9.04;100.00;99298.00;5025503;28;19932;-76
2023/10/27 14:30:05;;;;;;;;;;;;;;;9.05;100.00;99295.25;5024759;28;19936;-77